sensor_id;sensor_type;location;lat;lon;timestamp;pressure;altitude;pressure_sealevel;temperature;humidity
65384;BME280;51986;52.788;41.368;2023-02-22T00:01:28;97326.56;;;-11.36;53.61
65384;BME280;51986;52.788;41.368;2023-02-22T00:03:55;97322.91;;;-11.52;53.44
65384;BME280;51986;52.788;41.368;2023-02-22T00:06:22;97296.63;;;-11.88;53.76
65384;BME280;51986;52.788;41.368;2023-02-22T00:08:49;97331.50;;;-11.88;53.95
65384;BME280;51986;52.788;41.368;2023-02-22T00:11:17;97332.19;;;-11.96;54.03
65384;BME280;51986;52.788;41.368;2023-02-22T00:13:45;97355.81;;;-11.65;53.45
65384;BME280;51986;52.788;41.368;2023-02-22T00:16:29;97343.41;;;-11.97;53.90
65384;BME280;51986;52.788;41.368;2023-02-22T00:18:56;97296.91;;;-11.98;53.62
65384;BME280;51986;52.788;41.368;2023-02-22T00:21:23;97333.44;;;-11.85;53.66
65384;BME280;51986;52.788;41.368;2023-02-22T00:23:50;97334.75;;;-12.64;54.78
65384;BME280;51986;52.788;41.368;2023-02-22T00:26:20;97340.56;;;-12.27;54.28
65384;BME280;51986;52.788;41.368;2023-02-22T00:28:49;97325.25;;;-12.36;54.31
65384;BME280;51986;52.788;41.368;2023-02-22T00:31:16;97344.47;;;-12.21;53.56
65384;BME280;51986;52.788;41.368;2023-02-22T00:33:44;97315.59;;;-12.25;53.42
65384;BME280;51986;52.788;41.368;2023-02-22T00:36:12;97357.88;;;-12.29;53.83
65384;BME280;51986;52.788;41.368;2023-02-22T00:38:41;97363.56;;;-12.23;53.71
65384;BME280;51986;52.788;41.368;2023-02-22T00:41:08;97348.50;;;-12.42;53.47
65384;BME280;51986;52.788;41.368;2023-02-22T00:43:35;97366.28;;;-12.42;52.97
65384;BME280;51986;52.788;41.368;2023-02-22T00:46:03;97347.69;;;-12.29;52.64
65384;BME280;51986;52.788;41.368;2023-02-22T00:48:30;97365.50;;;-12.51;52.38
65384;BME280;51986;52.788;41.368;2023-02-22T00:50:57;97347.16;;;-12.84;52.86
65384;BME280;51986;52.788;41.368;2023-02-22T00:53:25;97366.22;;;-12.87;53.38
65384;BME280;51986;52.788;41.368;2023-02-22T00:55:53;97372.97;;;-13.19;54.00
65384;BME280;51986;52.788;41.368;2023-02-22T00:58:21;97352.09;;;-13.16;54.28
65384;BME280;51986;52.788;41.368;2023-02-22T01:00:48;97359.13;;;-13.13;54.29
65384;BME280;51986;52.788;41.368;2023-02-22T01:03:18;97394.56;;;-13.21;53.95
65384;BME280;51986;52.788;41.368;2023-02-22T01:05:46;97356.00;;;-13.46;53.95
65384;BME280;51986;52.788;41.368;2023-02-22T01:08:15;97347.16;;;-13.34;54.60
65384;BME280;51986;52.788;41.368;2023-02-22T01:10:42;97371.06;;;-13.82;54.74
65384;BME280;51986;52.788;41.368;2023-02-22T01:13:11;97369.13;;;-13.71;55.18
65384;BME280;51986;52.788;41.368;2023-02-22T01:15:41;97365.53;;;-13.84;54.79
65384;BME280;51986;52.788;41.368;2023-02-22T01:18:09;97383.41;;;-14.08;55.30
65384;BME280;51986;52.788;41.368;2023-02-22T01:20:36;97378.75;;;-14.20;55.55
65384;BME280;51986;52.788;41.368;2023-02-22T01:23:04;97365.09;;;-14.37;55.59
65384;BME280;51986;52.788;41.368;2023-02-22T01:25:33;97379.28;;;-14.55;55.89
65384;BME280;51986;52.788;41.368;2023-02-22T01:28:02;97389.75;;;-14.62;56.04
65384;BME280;51986;52.788;41.368;2023-02-22T01:30:32;97396.56;;;-14.44;56.40
65384;BME280;51986;52.788;41.368;2023-02-22T01:33:01;97358.53;;;-14.90;56.35
65384;BME280;51986;52.788;41.368;2023-02-22T01:35:32;97401.66;;;-14.62;55.88
65384;BME280;51986;52.788;41.368;2023-02-22T01:38:00;97405.38;;;-14.74;55.72
65384;BME280;51986;52.788;41.368;2023-02-22T01:40:29;97416.09;;;-14.82;56.35
65384;BME280;51986;52.788;41.368;2023-02-22T01:43:03;97425.28;;;-14.86;56.24
65384;BME280;51986;52.788;41.368;2023-02-22T01:48:23;97434.34;;;-14.66;55.63
65384;BME280;51986;52.788;41.368;2023-02-22T01:51:09;97403.97;;;-14.66;55.52
65384;BME280;51986;52.788;41.368;2023-02-22T01:54:10;97413.97;;;-14.93;55.85
65384;BME280;51986;52.788;41.368;2023-02-22T01:56:44;97435.34;;;-15.05;56.02
65384;BME280;51986;52.788;41.368;2023-02-22T01:59:13;97430.38;;;-14.91;55.91
65384;BME280;51986;52.788;41.368;2023-02-22T02:01:41;97437.41;;;-14.88;54.98
65384;BME280;51986;52.788;41.368;2023-02-22T02:04:15;97446.44;;;-14.82;55.22
65384;BME280;51986;52.788;41.368;2023-02-22T02:06:46;97438.06;;;-15.01;55.37
65384;BME280;51986;52.788;41.368;2023-02-22T02:11:59;97450.25;;;-15.03;55.00
65384;BME280;51986;52.788;41.368;2023-02-22T02:14:27;97452.28;;;-15.29;55.82
65384;BME280;51986;52.788;41.368;2023-02-22T02:16:55;97452.38;;;-15.15;55.14
65384;BME280;51986;52.788;41.368;2023-02-22T02:22:32;97462.25;;;-15.38;55.17
65384;BME280;51986;52.788;41.368;2023-02-22T02:35:54;97479.94;;;-15.38;54.27
65384;BME280;51986;52.788;41.368;2023-02-22T02:41:44;97488.06;;;-15.75;55.61
65384;BME280;51986;52.788;41.368;2023-02-22T02:46:50;97475.13;;;-15.97;55.89
65384;BME280;51986;52.788;41.368;2023-02-22T02:52:24;97504.97;;;-16.05;56.31
65384;BME280;51986;52.788;41.368;2023-02-22T02:54:54;97488.03;;;-16.04;56.29
65384;BME280;51986;52.788;41.368;2023-02-22T02:57:21;97491.78;;;-15.96;56.39
65384;BME280;51986;52.788;41.368;2023-02-22T02:59:48;97480.00;;;-16.11;56.21
65384;BME280;51986;52.788;41.368;2023-02-22T03:02:19;97483.53;;;-16.12;56.88
65384;BME280;51986;52.788;41.368;2023-02-22T03:13:06;97483.19;;;-16.35;57.40
65384;BME280;51986;52.788;41.368;2023-02-22T03:18:28;97502.34;;;-16.34;57.62
65384;BME280;51986;52.788;41.368;2023-02-22T03:23:44;97512.16;;;-16.27;56.78
65384;BME280;51986;52.788;41.368;2023-02-22T03:26:20;97531.13;;;-16.30;57.29
65384;BME280;51986;52.788;41.368;2023-02-22T03:28:52;97544.94;;;-16.17;57.41
65384;BME280;51986;52.788;41.368;2023-02-22T03:31:24;97531.81;;;-16.19;57.09
65384;BME280;51986;52.788;41.368;2023-02-22T03:33:57;97519.47;;;-16.20;56.96
65384;BME280;51986;52.788;41.368;2023-02-22T03:36:32;97531.56;;;-16.22;56.98
65384;BME280;51986;52.788;41.368;2023-02-22T03:39:02;97522.63;;;-16.49;57.61
65384;BME280;51986;52.788;41.368;2023-02-22T03:41:34;97548.25;;;-16.27;57.66
65384;BME280;51986;52.788;41.368;2023-02-22T03:44:08;97526.00;;;-16.19;56.80
65384;BME280;51986;52.788;41.368;2023-02-22T03:46:39;97554.78;;;-16.15;56.77
65384;BME280;51986;52.788;41.368;2023-02-22T03:49:28;97559.34;;;-16.22;57.07
65384;BME280;51986;52.788;41.368;2023-02-22T03:51:58;97517.53;;;-16.39;56.73
65384;BME280;51986;52.788;41.368;2023-02-22T03:54:27;97567.00;;;-16.43;57.36
65384;BME280;51986;52.788;41.368;2023-02-22T03:56:58;97552.13;;;-16.39;57.22
65384;BME280;51986;52.788;41.368;2023-02-22T03:59:29;97545.50;;;-16.30;56.53
65384;BME280;51986;52.788;41.368;2023-02-22T04:01:56;97559.22;;;-16.57;57.51
65384;BME280;51986;52.788;41.368;2023-02-22T04:04:24;97576.56;;;-16.30;56.38
65384;BME280;51986;52.788;41.368;2023-02-22T04:06:52;97573.56;;;-16.42;56.74
65384;BME280;51986;52.788;41.368;2023-02-22T04:09:20;97579.88;;;-16.49;57.09
65384;BME280;51986;52.788;41.368;2023-02-22T04:11:48;97565.56;;;-16.64;57.24
65384;BME280;51986;52.788;41.368;2023-02-22T04:14:15;97585.72;;;-16.54;56.92
65384;BME280;51986;52.788;41.368;2023-02-22T04:16:42;97576.59;;;-16.45;56.65
65384;BME280;51986;52.788;41.368;2023-02-22T04:19:09;97584.19;;;-16.55;56.45
65384;BME280;51986;52.788;41.368;2023-02-22T04:21:37;97584.50;;;-16.72;57.37
65384;BME280;51986;52.788;41.368;2023-02-22T04:24:09;97593.59;;;-16.71;58.12
65384;BME280;51986;52.788;41.368;2023-02-22T04:26:37;97584.75;;;-16.73;57.31
65384;BME280;51986;52.788;41.368;2023-02-22T04:29:05;97620.06;;;-16.79;57.58
65384;BME280;51986;52.788;41.368;2023-02-22T04:31:38;97595.31;;;-16.61;56.88
65384;BME280;51986;52.788;41.368;2023-02-22T04:34:09;97609.41;;;-16.50;57.26
65384;BME280;51986;52.788;41.368;2023-02-22T04:36:39;97608.97;;;-16.72;56.95
65384;BME280;51986;52.788;41.368;2023-02-22T04:39:06;97600.44;;;-16.97;57.34
65384;BME280;51986;52.788;41.368;2023-02-22T04:41:36;97627.91;;;-16.75;56.88
65384;BME280;51986;52.788;41.368;2023-02-22T04:44:07;97640.47;;;-16.44;56.45
65384;BME280;51986;52.788;41.368;2023-02-22T04:46:45;97657.38;;;-16.60;57.15
65384;BME280;51986;52.788;41.368;2023-02-22T04:49:17;97645.53;;;-16.60;57.01
65384;BME280;51986;52.788;41.368;2023-02-22T04:51:46;97648.28;;;-16.51;56.13
65384;BME280;51986;52.788;41.368;2023-02-22T04:54:15;97643.50;;;-16.47;57.30
65384;BME280;51986;52.788;41.368;2023-02-22T04:56:46;97657.66;;;-16.62;56.74
65384;BME280;51986;52.788;41.368;2023-02-22T04:59:14;97644.44;;;-16.23;55.82
65384;BME280;51986;52.788;41.368;2023-02-22T05:01:43;97657.75;;;-16.02;55.18
65384;BME280;51986;52.788;41.368;2023-02-22T05:04:11;97670.78;;;-15.80;55.15
65384;BME280;51986;52.788;41.368;2023-02-22T05:06:38;97686.19;;;-15.76;54.38
65384;BME280;51986;52.788;41.368;2023-02-22T05:09:05;97689.34;;;-15.55;53.88
65384;BME280;51986;52.788;41.368;2023-02-22T05:11:32;97679.66;;;-15.38;53.16
65384;BME280;51986;52.788;41.368;2023-02-22T05:13:59;97675.81;;;-15.30;53.09
65384;BME280;51986;52.788;41.368;2023-02-22T05:16:26;97651.78;;;-15.28;52.56
65384;BME280;51986;52.788;41.368;2023-02-22T05:18:53;97673.69;;;-15.13;52.30
65384;BME280;51986;52.788;41.368;2023-02-22T05:21:20;97667.28;;;-15.00;52.47
65384;BME280;51986;52.788;41.368;2023-02-22T05:23:50;97684.31;;;-14.77;52.04
65384;BME280;51986;52.788;41.368;2023-02-22T05:26:17;97633.25;;;-14.84;51.41
65384;BME280;51986;52.788;41.368;2023-02-22T05:28:44;97683.44;;;-14.38;51.13
65384;BME280;51986;52.788;41.368;2023-02-22T05:31:11;97702.16;;;-14.39;50.79
65384;BME280;51986;52.788;41.368;2023-02-22T05:33:38;97693.94;;;-13.78;50.03
65384;BME280;51986;52.788;41.368;2023-02-22T05:36:06;97682.84;;;-13.63;49.53
65384;BME280;51986;52.788;41.368;2023-02-22T05:38:39;97710.06;;;-13.31;48.97
65384;BME280;51986;52.788;41.368;2023-02-22T05:41:06;97726.19;;;-13.22;48.09
65384;BME280;51986;52.788;41.368;2023-02-22T05:43:38;97675.53;;;-13.64;48.50
65384;BME280;51986;52.788;41.368;2023-02-22T05:46:05;97703.56;;;-12.99;48.08
65384;BME280;51986;52.788;41.368;2023-02-22T05:48:32;97720.63;;;-13.61;47.71
65384;BME280;51986;52.788;41.368;2023-02-22T05:51:00;97715.38;;;-13.46;47.98
65384;BME280;51986;52.788;41.368;2023-02-22T05:53:27;97728.72;;;-12.84;47.15
65384;BME280;51986;52.788;41.368;2023-02-22T05:55:54;97722.69;;;-13.07;46.39
65384;BME280;51986;52.788;41.368;2023-02-22T05:58:21;97723.78;;;-12.94;46.84
65384;BME280;51986;52.788;41.368;2023-02-22T06:00:48;97734.34;;;-12.54;45.96
65384;BME280;51986;52.788;41.368;2023-02-22T06:03:15;97697.13;;;-12.45;45.73
65384;BME280;51986;52.788;41.368;2023-02-22T06:05:42;97711.47;;;-12.68;46.23
65384;BME280;51986;52.788;41.368;2023-02-22T06:08:09;97727.06;;;-12.28;45.89
65384;BME280;51986;52.788;41.368;2023-02-22T06:10:36;97739.84;;;-11.87;45.26
65384;BME280;51986;52.788;41.368;2023-02-22T06:13:05;97738.59;;;-12.03;44.78
65384;BME280;51986;52.788;41.368;2023-02-22T06:15:32;97738.84;;;-11.50;44.49
65384;BME280;51986;52.788;41.368;2023-02-22T06:18:00;97727.78;;;-10.95;43.42
65384;BME280;51986;52.788;41.368;2023-02-22T06:20:28;97735.03;;;-10.66;43.01
65384;BME280;51986;52.788;41.368;2023-02-22T06:22:56;97740.41;;;-10.45;42.09
65384;BME280;51986;52.788;41.368;2023-02-22T06:25:27;97707.69;;;-10.21;41.96
65384;BME280;51986;52.788;41.368;2023-02-22T06:27:54;97725.69;;;-10.48;41.04
65384;BME280;51986;52.788;41.368;2023-02-22T06:30:22;97732.97;;;-11.00;42.49
65384;BME280;51986;52.788;41.368;2023-02-22T06:32:50;97772.72;;;-10.32;41.37
65384;BME280;51986;52.788;41.368;2023-02-22T06:35:17;97726.41;;;-9.86;40.56
65384;BME280;51986;52.788;41.368;2023-02-22T06:37:44;97728.22;;;-9.86;40.16
65384;BME280;51986;52.788;41.368;2023-02-22T06:40:12;97752.25;;;-9.70;39.93
65384;BME280;51986;52.788;41.368;2023-02-22T06:42:40;97755.78;;;-9.48;39.64
65384;BME280;51986;52.788;41.368;2023-02-22T06:45:08;97740.31;;;-10.00;40.21
65384;BME280;51986;52.788;41.368;2023-02-22T06:47:39;97737.59;;;-9.47;39.57
65384;BME280;51986;52.788;41.368;2023-02-22T06:50:09;97763.47;;;-9.31;39.75
65384;BME280;51986;52.788;41.368;2023-02-22T06:52:43;97741.72;;;-8.85;39.24
65384;BME280;51986;52.788;41.368;2023-02-22T06:55:09;97744.56;;;-8.61;38.52
65384;BME280;51986;52.788;41.368;2023-02-22T06:57:36;97774.63;;;-8.49;38.33
65384;BME280;51986;52.788;41.368;2023-02-22T07:00:04;97749.22;;;-9.15;37.83
65384;BME280;51986;52.788;41.368;2023-02-22T07:02:31;97758.06;;;-9.30;38.73
65384;BME280;51986;52.788;41.368;2023-02-22T07:04:58;97760.06;;;-8.92;37.89
65384;BME280;51986;52.788;41.368;2023-02-22T07:07:25;97763.19;;;-8.69;37.56
65384;BME280;51986;52.788;41.368;2023-02-22T07:09:52;97766.63;;;-8.30;37.79
65384;BME280;51986;52.788;41.368;2023-02-22T07:12:19;97745.88;;;-8.46;37.38
65384;BME280;51986;52.788;41.368;2023-02-22T07:14:46;97777.84;;;-7.97;37.35
65384;BME280;51986;52.788;41.368;2023-02-22T07:17:13;97798.66;;;-8.24;36.78
65384;BME280;51986;52.788;41.368;2023-02-22T07:19:40;97796.44;;;-8.69;37.41
65384;BME280;51986;52.788;41.368;2023-02-22T07:22:07;97814.97;;;-7.82;36.93
65384;BME280;51986;52.788;41.368;2023-02-22T07:24:34;97770.41;;;-7.89;36.15
65384;BME280;51986;52.788;41.368;2023-02-22T07:27:01;97791.50;;;-7.25;35.54
65384;BME280;51986;52.788;41.368;2023-02-22T07:29:28;97805.41;;;-7.34;35.58
65384;BME280;51986;52.788;41.368;2023-02-22T07:31:55;97817.66;;;-7.78;35.79
65384;BME280;51986;52.788;41.368;2023-02-22T07:34:22;97803.28;;;-8.09;36.26
65384;BME280;51986;52.788;41.368;2023-02-22T07:36:49;97821.69;;;-7.68;35.66
65384;BME280;51986;52.788;41.368;2023-02-22T07:39:16;97781.72;;;-7.52;35.59
65384;BME280;51986;52.788;41.368;2023-02-22T07:41:43;97809.81;;;-7.73;35.13
65384;BME280;51986;52.788;41.368;2023-02-22T07:44:30;97812.06;;;-8.36;36.56
65384;BME280;51986;52.788;41.368;2023-02-22T07:46:57;97778.53;;;-8.43;36.54
65384;BME280;51986;52.788;41.368;2023-02-22T07:49:24;97799.63;;;-7.90;36.76
65384;BME280;51986;52.788;41.368;2023-02-22T07:51:51;97806.19;;;-8.36;36.99
65384;BME280;51986;52.788;41.368;2023-02-22T07:54:18;97803.66;;;-8.71;36.45
65384;BME280;51986;52.788;41.368;2023-02-22T07:56:48;97819.44;;;-8.60;36.99
65384;BME280;51986;52.788;41.368;2023-02-22T07:59:15;97777.47;;;-8.51;37.51
65384;BME280;51986;52.788;41.368;2023-02-22T08:01:42;97808.56;;;-8.05;36.88
65384;BME280;51986;52.788;41.368;2023-02-22T08:04:09;97799.28;;;-8.96;37.83
65384;BME280;51986;52.788;41.368;2023-02-22T08:06:36;97762.72;;;-9.40;38.48
65384;BME280;51986;52.788;41.368;2023-02-22T08:09:03;97823.44;;;-9.68;39.72
65384;BME280;51986;52.788;41.368;2023-02-22T08:11:30;97837.34;;;-9.43;40.08
65384;BME280;51986;52.788;41.368;2023-02-22T08:13:57;97827.91;;;-9.34;40.13
65384;BME280;51986;52.788;41.368;2023-02-22T08:16:24;97814.50;;;-9.80;40.35
65384;BME280;51986;52.788;41.368;2023-02-22T08:18:50;97805.03;;;-10.41;41.58
65384;BME280;51986;52.788;41.368;2023-02-22T08:21:17;97839.75;;;-10.09;42.44
65384;BME280;51986;52.788;41.368;2023-02-22T08:23:50;97834.84;;;-9.66;41.49
65384;BME280;51986;52.788;41.368;2023-02-22T08:26:17;97831.47;;;-10.15;41.78
65384;BME280;51986;52.788;41.368;2023-02-22T08:28:44;97825.38;;;-10.27;42.09
65384;BME280;51986;52.788;41.368;2023-02-22T08:31:11;97857.22;;;-10.02;42.21
65384;BME280;51986;52.788;41.368;2023-02-22T08:33:37;97837.78;;;-9.41;41.04
65384;BME280;51986;52.788;41.368;2023-02-22T08:36:05;97832.38;;;-9.88;41.17
65384;BME280;51986;52.788;41.368;2023-02-22T08:38:32;97830.50;;;-9.08;39.78
65384;BME280;51986;52.788;41.368;2023-02-22T08:40:59;97835.69;;;-8.56;38.95
65384;BME280;51986;52.788;41.368;2023-02-22T08:43:26;97866.59;;;-9.10;40.15
65384;BME280;51986;52.788;41.368;2023-02-22T08:45:53;97840.28;;;-9.10;39.54
65384;BME280;51986;52.788;41.368;2023-02-22T08:48:23;97841.81;;;-8.83;39.35
65384;BME280;51986;52.788;41.368;2023-02-22T08:50:50;97854.03;;;-8.71;39.30
65384;BME280;51986;52.788;41.368;2023-02-22T08:53:17;97837.59;;;-8.88;38.53
65384;BME280;51986;52.788;41.368;2023-02-22T08:55:44;97862.91;;;-9.35;40.32
65384;BME280;51986;52.788;41.368;2023-02-22T08:58:12;97871.19;;;-9.29;40.07
65384;BME280;51986;52.788;41.368;2023-02-22T09:00:40;97866.00;;;-10.09;42.06
65384;BME280;51986;52.788;41.368;2023-02-22T09:03:09;97871.81;;;-9.86;42.50
65384;BME280;51986;52.788;41.368;2023-02-22T09:05:36;97871.28;;;-9.74;41.68
65384;BME280;51986;52.788;41.368;2023-02-22T09:08:04;97867.16;;;-9.92;41.70
65384;BME280;51986;52.788;41.368;2023-02-22T09:10:33;97855.06;;;-9.78;41.24
65384;BME280;51986;52.788;41.368;2023-02-22T09:13:00;97886.25;;;-9.81;41.57
65384;BME280;51986;52.788;41.368;2023-02-22T09:15:28;97848.28;;;-10.14;43.21
65384;BME280;51986;52.788;41.368;2023-02-22T09:17:55;97888.56;;;-10.24;42.97
65384;BME280;51986;52.788;41.368;2023-02-22T09:20:23;97878.81;;;-10.22;43.77
65384;BME280;51986;52.788;41.368;2023-02-22T09:22:51;97863.00;;;-10.11;43.81
65384;BME280;51986;52.788;41.368;2023-02-22T09:25:19;97894.16;;;-9.60;43.00
65384;BME280;51986;52.788;41.368;2023-02-22T09:27:47;97891.16;;;-9.93;42.32
65384;BME280;51986;52.788;41.368;2023-02-22T09:30:18;97887.25;;;-9.60;42.85
65384;BME280;51986;52.788;41.368;2023-02-22T09:32:45;97888.16;;;-9.64;41.49
65384;BME280;51986;52.788;41.368;2023-02-22T09:35:13;97882.66;;;-10.47;42.92
65384;BME280;51986;52.788;41.368;2023-02-22T09:37:40;97880.00;;;-10.78;43.49
65384;BME280;51986;52.788;41.368;2023-02-22T09:40:08;97908.09;;;-10.20;43.06
65384;BME280;51986;52.788;41.368;2023-02-22T09:42:51;97894.97;;;-10.27;43.39
65384;BME280;51986;52.788;41.368;2023-02-22T09:45:50;97902.88;;;-9.84;43.12
65384;BME280;51986;52.788;41.368;2023-02-22T09:48:25;97896.19;;;-9.48;41.56
65384;BME280;51986;52.788;41.368;2023-02-22T09:50:56;97922.81;;;-9.94;42.56
65384;BME280;51986;52.788;41.368;2023-02-22T09:53:29;97924.09;;;-9.52;41.66
65384;BME280;51986;52.788;41.368;2023-02-22T09:56:07;97938.66;;;-10.06;42.63
65384;BME280;51986;52.788;41.368;2023-02-22T09:58:39;97920.09;;;-10.20;42.42
65384;BME280;51986;52.788;41.368;2023-02-22T10:09:43;97928.47;;;-9.75;41.67
65384;BME280;51986;52.788;41.368;2023-02-22T10:12:41;97935.28;;;-9.39;41.89
65384;BME280;51986;52.788;41.368;2023-02-22T10:23:40;97949.13;;;-9.85;42.46
65384;BME280;51986;52.788;41.368;2023-02-22T10:26:20;97953.59;;;-9.91;42.41
65384;BME280;51986;52.788;41.368;2023-02-22T10:28:52;97969.38;;;-10.11;42.85
65384;BME280;51986;52.788;41.368;2023-02-22T10:31:32;97970.34;;;-10.21;43.19
65384;BME280;51986;52.788;41.368;2023-02-22T10:34:03;97972.50;;;-10.28;43.13
65384;BME280;51986;52.788;41.368;2023-02-22T10:36:45;97970.13;;;-10.11;43.17
65384;BME280;51986;52.788;41.368;2023-02-22T10:39:32;97956.19;;;-10.05;42.93
65384;BME280;51986;52.788;41.368;2023-02-22T10:42:03;97983.97;;;-10.39;43.78
65384;BME280;51986;52.788;41.368;2023-02-22T10:44:35;97988.03;;;-10.93;44.59
65384;BME280;51986;52.788;41.368;2023-02-22T10:47:04;97967.31;;;-10.37;43.79
65384;BME280;51986;52.788;41.368;2023-02-22T10:49:40;97965.94;;;-10.07;42.45
65384;BME280;51986;52.788;41.368;2023-02-22T10:52:18;98001.88;;;-10.17;43.38
65384;BME280;51986;52.788;41.368;2023-02-22T10:54:49;97987.72;;;-10.37;43.56
65384;BME280;51986;52.788;41.368;2023-02-22T10:57:23;97985.38;;;-10.47;44.10
65384;BME280;51986;52.788;41.368;2023-02-22T10:59:51;97980.66;;;-10.40;43.75
65384;BME280;51986;52.788;41.368;2023-02-22T11:02:33;97991.13;;;-10.96;45.37
65384;BME280;51986;52.788;41.368;2023-02-22T11:05:03;98012.50;;;-10.65;44.72
65384;BME280;51986;52.788;41.368;2023-02-22T11:07:33;97999.81;;;-10.97;45.69
65384;BME280;51986;52.788;41.368;2023-02-22T11:10:06;98020.13;;;-10.65;45.64
65384;BME280;51986;52.788;41.368;2023-02-22T11:12:36;98009.16;;;-10.65;45.25
65384;BME280;51986;52.788;41.368;2023-02-22T11:17:50;98032.84;;;-10.92;45.65
65384;BME280;51986;52.788;41.368;2023-02-22T11:20:38;98039.31;;;-11.14;46.76
65384;BME280;51986;52.788;41.368;2023-02-22T11:23:05;98042.66;;;-10.86;46.14
65384;BME280;51986;52.788;41.368;2023-02-22T11:25:36;98027.84;;;-10.84;45.97
65384;BME280;51986;52.788;41.368;2023-02-22T11:28:11;98024.66;;;-10.62;45.79
65384;BME280;51986;52.788;41.368;2023-02-22T11:30:43;98048.69;;;-10.95;47.49
65384;BME280;51986;52.788;41.368;2023-02-22T11:36:00;98039.47;;;-11.24;46.41
65384;BME280;51986;52.788;41.368;2023-02-22T11:38:33;98029.78;;;-11.22;46.64
65384;BME280;51986;52.788;41.368;2023-02-22T11:41:10;98043.06;;;-10.78;46.21
65384;BME280;51986;52.788;41.368;2023-02-22T11:43:37;98019.16;;;-10.96;46.31
65384;BME280;51986;52.788;41.368;2023-02-22T11:46:08;98062.88;;;-10.62;45.97
65384;BME280;51986;52.788;41.368;2023-02-22T11:48:41;98062.97;;;-10.67;46.08
65384;BME280;51986;52.788;41.368;2023-02-22T11:56:38;98059.28;;;-10.74;45.81
65384;BME280;51986;52.788;41.368;2023-02-22T12:02:32;98076.38;;;-10.20;45.26
65384;BME280;51986;52.788;41.368;2023-02-22T12:05:19;98101.38;;;-9.94;44.42
65384;BME280;51986;52.788;41.368;2023-02-22T12:10:50;98092.47;;;-9.47;43.24
65384;BME280;51986;52.788;41.368;2023-02-22T12:21:35;98110.66;;;-10.40;44.54
65384;BME280;51986;52.788;41.368;2023-02-22T12:24:18;98121.13;;;-10.41;44.69
65384;BME280;51986;52.788;41.368;2023-02-22T12:26:50;98091.84;;;-10.58;44.72
65384;BME280;51986;52.788;41.368;2023-02-22T12:29:32;98146.16;;;-10.43;44.84
65384;BME280;51986;52.788;41.368;2023-02-22T12:37:26;98126.72;;;-10.25;45.04
65384;BME280;51986;52.788;41.368;2023-02-22T12:45:37;98129.00;;;-11.36;46.72
65384;BME280;51986;52.788;41.368;2023-02-22T12:48:24;98112.97;;;-11.36;47.29
65384;BME280;51986;52.788;41.368;2023-02-22T12:51:00;98139.34;;;-11.13;47.00
65384;BME280;51986;52.788;41.368;2023-02-22T12:53:34;98121.06;;;-11.34;47.57
65384;BME280;51986;52.788;41.368;2023-02-22T12:56:44;98149.00;;;-11.48;48.04
65384;BME280;51986;52.788;41.368;2023-02-22T12:59:19;98152.28;;;-11.47;48.28
65384;BME280;51986;52.788;41.368;2023-02-22T13:01:57;98107.06;;;-11.50;47.18
65384;BME280;51986;52.788;41.368;2023-02-22T13:04:27;98153.94;;;-11.38;47.89
65384;BME280;51986;52.788;41.368;2023-02-22T13:10:37;98147.13;;;-11.42;48.26
65384;BME280;51986;52.788;41.368;2023-02-22T13:13:31;98167.78;;;-11.25;47.64
65384;BME280;51986;52.788;41.368;2023-02-22T13:16:38;98172.59;;;-11.42;47.56
65384;BME280;51986;52.788;41.368;2023-02-22T13:25:13;98200.25;;;-11.36;47.60
65384;BME280;51986;52.788;41.368;2023-02-22T13:27:49;98179.25;;;-11.27;47.71
65384;BME280;51986;52.788;41.368;2023-02-22T13:30:40;98167.09;;;-11.49;48.11
65384;BME280;51986;52.788;41.368;2023-02-22T13:44:09;98224.78;;;-11.64;48.48
65384;BME280;51986;52.788;41.368;2023-02-22T13:52:21;98212.34;;;-11.65;48.18
65384;BME280;51986;52.788;41.368;2023-02-22T13:54:52;98218.03;;;-11.97;49.26
65384;BME280;51986;52.788;41.368;2023-02-22T13:57:29;98223.44;;;-12.33;49.69
65384;BME280;51986;52.788;41.368;2023-02-22T14:08:37;98254.09;;;-12.53;51.13
65384;BME280;51986;52.788;41.368;2023-02-22T14:11:05;98252.16;;;-12.67;51.77
65384;BME280;51986;52.788;41.368;2023-02-22T14:16:26;98242.50;;;-12.65;50.66
65384;BME280;51986;52.788;41.368;2023-02-22T14:19:12;98250.66;;;-12.73;51.41
65384;BME280;51986;52.788;41.368;2023-02-22T14:21:59;98265.47;;;-12.80;52.21
65384;BME280;51986;52.788;41.368;2023-02-22T14:24:29;98264.13;;;-13.17;52.11
65384;BME280;51986;52.788;41.368;2023-02-22T14:27:09;98260.00;;;-13.02;52.66
65384;BME280;51986;52.788;41.368;2023-02-22T14:29:48;98250.63;;;-13.07;52.81
65384;BME280;51986;52.788;41.368;2023-02-22T14:32:16;98255.72;;;-13.12;52.72
65384;BME280;51986;52.788;41.368;2023-02-22T14:34:53;98285.47;;;-13.23;52.73
65384;BME280;51986;52.788;41.368;2023-02-22T14:37:26;98275.06;;;-13.26;53.21
65384;BME280;51986;52.788;41.368;2023-02-22T14:40:18;98246.41;;;-13.27;52.92
65384;BME280;51986;52.788;41.368;2023-02-22T14:42:49;98261.47;;;-13.41;53.99
65384;BME280;51986;52.788;41.368;2023-02-22T14:45:23;98277.34;;;-13.25;53.67
65384;BME280;51986;52.788;41.368;2023-02-22T14:47:57;98292.34;;;-13.28;53.16
65384;BME280;51986;52.788;41.368;2023-02-22T14:55:33;98278.97;;;-13.44;54.07
65384;BME280;51986;52.788;41.368;2023-02-22T14:58:15;98288.06;;;-13.38;53.29
65384;BME280;51986;52.788;41.368;2023-02-22T15:00:48;98286.31;;;-13.48;54.13
65384;BME280;51986;52.788;41.368;2023-02-22T15:05:56;98302.84;;;-13.50;54.49
65384;BME280;51986;52.788;41.368;2023-02-22T15:08:23;98304.38;;;-13.59;54.90
65384;BME280;51986;52.788;41.368;2023-02-22T15:10:50;98279.03;;;-13.59;54.62
65384;BME280;51986;52.788;41.368;2023-02-22T15:13:23;98286.16;;;-13.82;54.56
65384;BME280;51986;52.788;41.368;2023-02-22T15:15:54;98335.81;;;-13.50;54.22
65384;BME280;51986;52.788;41.368;2023-02-22T15:18:45;98321.63;;;-13.51;54.40
65384;BME280;51986;52.788;41.368;2023-02-22T15:21:16;98323.16;;;-13.60;54.43
65384;BME280;51986;52.788;41.368;2023-02-22T15:23:52;98334.59;;;-13.78;54.58